Time;durP1;ratioP1;P1;durP2;ratioP2;P2;SDS_P1;SDS_P2;PMS_P1;PMS_P2;Temp;Humidity;BMP_temperature;BMP_pressure;BME280_temperature;BME280_humidity;BME280_pressure;Samples;Min_cycle;Max_cycle;Signal;HPM_P1;HPM_P2
2021/09/04 00:01:06;;;;;;;11.53;3.40;;;13.10;83.80;;;;;;5053737;28;20206;-87
2021/09/04 00:03:32;;;;;;;7.60;3.37;;;13.20;83.80;;;;;;5035622;28;20175;-87
2021/09/04 00:05:58;;;;;;;7.90;3.00;;;13.20;84.20;;;;;;5036544;28;20184;-87
2021/09/04 00:08:23;;;;;;;11.13;3.47;;;13.20;84.10;;;;;;5035530;28;20207;-87
2021/09/04 00:10:49;;;;;;;7.97;3.57;;;13.20;84.10;;;;;;5035494;28;20658;-87
2021/09/04 00:13:15;;;;;;;16.43;3.70;;;13.30;83.90;;;;;;5053390;28;20176;-87
2021/09/04 00:15:41;;;;;;;11.93;4.13;;;13.30;83.80;;;;;;5035488;28;20183;-87
2021/09/04 00:18:07;;;;;;;8.63;4.53;;;13.30;83.90;;;;;;5035531;28;20268;-87
2021/09/04 00:20:33;;;;;;;14.43;4.03;;;13.40;83.70;;;;;;5035390;28;20215;-87
2021/09/04 00:22:59;;;;;;;12.83;4.13;;;13.50;83.50;;;;;;5053146;28;20211;-87
2021/09/04 00:25:25;;;;;;;12.30;3.50;;;13.50;83.60;;;;;;5035388;28;20666;-87
2021/09/04 00:27:50;;;;;;;9.67;3.23;;;13.50;83.60;;;;;;5035309;28;20180;-87
2021/09/04 00:30:16;;;;;;;7.63;3.30;;;13.50;83.50;;;;;;5035377;28;20713;-87
2021/09/04 00:32:42;;;;;;;7.33;3.03;;;13.60;83.60;;;;;;5035169;28;20206;-87
2021/09/04 00:35:08;;;;;;;14.13;3.90;;;13.60;83.50;;;;;;5053105;28;20537;-87
2021/09/04 00:37:34;;;;;;;12.77;3.10;;;13.60;83.70;;;;;;5053127;28;20176;-87
2021/09/04 00:39:59;;;;;;;16.27;3.60;;;13.60;83.90;;;;;;5035258;28;20530;-87
2021/09/04 00:42:25;;;;;;;7.73;3.13;;;13.60;83.80;;;;;;5035045;28;20298;-87
2021/09/04 00:44:51;;;;;;;11.93;4.33;;;13.70;83.70;;;;;;5035152;28;20269;-87
2021/09/04 00:47:17;;;;;;;6.33;3.43;;;13.70;83.30;;;;;;5035298;28;20183;-87
2021/09/04 00:49:42;;;;;;;9.20;3.00;;;13.70;83.40;;;;;;5035078;28;20207;-87
2021/09/04 00:52:09;;;;;;;15.80;3.57;;;13.70;83.40;;;;;;5036331;28;20211;-87
2021/09/04 00:54:36;;;;;;;9.27;3.60;;;13.80;83.10;;;;;;5056885;28;20260;-87
2021/09/04 00:57:02;;;;;;;8.07;3.80;;;13.80;82.90;;;;;;5056886;28;20208;-87
2021/09/04 00:59:28;;;;;;;13.13;4.17;;;13.80;82.90;;;;;;5038968;28;20191;-87
2021/09/04 01:01:54;;;;;;;12.50;4.73;;;13.90;82.60;;;;;;5038975;28;20204;-87
2021/09/04 01:04:21;;;;;;;6.43;4.17;;;13.90;82.50;;;;;;5039434;28;20180;-87
2021/09/04 01:06:47;;;;;;;14.03;4.40;;;13.90;82.70;;;;;;5057062;28;20180;-87
2021/09/04 01:09:14;;;;;;;9.27;4.27;;;13.80;83.10;;;;;;5038656;28;20211;-88
2021/09/04 01:11:40;;;;;;;13.07;4.37;;;13.90;83.00;;;;;;5038771;28;20192;-87
2021/09/04 01:14:06;;;;;;;9.93;4.13;;;13.90;83.10;;;;;;5056566;28;20180;-87
2021/09/04 01:16:36;;;;;;;8.33;4.47;;;13.90;83.10;;;;;;5038842;28;20227;-87
2021/09/04 01:19:02;;;;;;;14.90;4.93;;;13.90;82.70;;;;;;5038582;28;20180;-87
2021/09/04 01:21:28;;;;;;;12.50;4.90;;;14.00;82.50;;;;;;5038709;28;20203;-87
2021/09/04 01:23:54;;;;;;;9.00;4.23;;;14.00;82.30;;;;;;5038572;28;20184;-87
2021/09/04 01:26:20;;;;;;;9.50;4.23;;;14.00;82.30;;;;;;5056604;28;20720;-87
2021/09/04 01:28:46;;;;;;;13.20;4.20;;;14.00;82.10;;;;;;5056226;28;20218;-87
2021/09/04 01:31:11;;;;;;;7.13;3.70;;;14.00;82.00;;;;;;5038575;28;20655;-87
2021/09/04 01:33:46;;;;;;;11.57;3.40;;;14.00;82.00;;;;;;5038549;28;20636;-87
2021/09/04 01:36:12;;;;;;;8.90;3.90;;;14.10;82.10;;;;;;5056516;28;20160;-87
2021/09/04 01:38:38;;;;;;;13.03;4.10;;;14.10;82.10;;;;;;5038358;28;20175;-87
2021/09/04 01:41:04;;;;;;;10.73;4.90;;;14.10;82.30;;;;;;5038188;28;20575;-87
2021/09/04 01:43:29;;;;;;;12.63;4.33;;;14.10;82.30;;;;;;5038528;28;20180;-87
2021/09/04 01:45:55;;;;;;;12.70;4.47;;;14.00;82.30;;;;;;5056038;28;20172;-87
2021/09/04 01:48:21;;;;;;;12.50;4.40;;;14.00;82.30;;;;;;5055893;28;20298;-87
2021/09/04 01:50:47;;;;;;;7.53;3.87;;;14.00;82.60;;;;;;5037986;28;20172;-88
2021/09/04 01:53:12;;;;;;;8.77;3.30;;;14.00;82.50;;;;;;5038114;28;20176;-87
2021/09/04 01:55:38;;;;;;;10.60;4.13;;;14.10;81.80;;;;;;5056069;28;20171;-87
2021/09/04 01:58:04;;;;;;;12.67;3.90;;;14.10;81.90;;;;;;5037927;28;20179;-87
2021/09/04 02:00:29;;;;;;;7.93;3.10;;;14.10;81.80;;;;;;5037861;28;20218;-87
2021/09/04 02:02:55;;;;;;;15.73;2.87;;;14.00;81.70;;;;;;5037474;28;20192;-87
2021/09/04 02:05:21;;;;;;;8.83;2.63;;;14.10;81.00;;;;;;5037216;28;20640;-87
2021/09/04 02:07:46;;;;;;;8.37;2.60;;;14.20;80.50;;;;;;5038077;28;20172;-87
2021/09/04 02:10:12;;;;;;;6.63;2.93;;;14.20;80.50;;;;;;5037668;28;20200;-87
2021/09/04 02:12:38;;;;;;;6.27;3.13;;;14.20;80.60;;;;;;5037618;28;20253;-87
2021/09/04 02:15:06;;;;;;;4.70;2.20;;;14.20;80.80;;;;;;5055784;28;20172;-87
2021/09/04 02:17:33;;;;;;;6.40;2.60;;;14.10;80.30;;;;;;5055380;28;20165;-87
2021/09/04 02:19:58;;;;;;;6.70;2.70;;;14.10;80.30;;;;;;5055533;28;20217;-87
2021/09/04 02:22:24;;;;;;;6.53;2.50;;;14.10;80.30;;;;;;5037409;28;20199;-87
2021/09/04 02:24:50;;;;;;;8.40;3.30;;;14.10;80.20;;;;;;5037525;28;20548;-87
2021/09/04 02:27:15;;;;;;;6.40;2.43;;;14.10;79.50;;;;;;5055393;28;20176;-87
2021/09/04 02:29:41;;;;;;;5.90;2.60;;;14.10;79.40;;;;;;5037264;28;20245;-87
2021/09/04 02:32:07;;;;;;;6.57;2.43;;;14.10;79.10;;;;;;5037619;28;20188;-87
2021/09/04 02:34:33;;;;;;;9.37;2.93;;;14.10;79.20;;;;;;5037174;28;20175;-87
2021/09/04 02:36:58;;;;;;;14.47;2.80;;;14.10;79.40;;;;;;5037262;28;20266;-87
2021/09/04 02:39:24;;;;;;;9.27;2.53;;;14.20;79.20;;;;;;5037163;28;20274;-87
2021/09/04 02:41:50;;;;;;;8.70;2.90;;;14.20;79.30;;;;;;5037124;28;20196;-87
2021/09/04 02:44:15;;;;;;;7.83;3.40;;;14.20;79.10;;;;;;5037150;28;20184;-87
2021/09/04 02:46:41;;;;;;;9.27;2.97;;;14.20;78.40;;;;;;5054895;28;20258;-87
2021/09/04 02:49:06;;;;;;;9.43;3.53;;;14.20;78.20;;;;;;5037357;28;20208;-87
2021/09/04 02:51:32;;;;;;;7.37;3.23;;;14.20;77.90;;;;;;5037033;28;20203;-87
2021/09/04 02:53:58;;;;;;;9.93;3.70;;;14.20;78.40;;;;;;5037230;28;20244;-87
2021/09/04 02:56:23;;;;;;;10.50;4.13;;;14.20;78.40;;;;;;5036896;28;20658;-87
2021/09/04 02:58:49;;;;;;;8.73;3.23;;;14.20;78.60;;;;;;5036730;28;20172;-87
2021/09/04 03:01:15;;;;;;;11.50;3.23;;;14.20;78.60;;;;;;5036737;28;20246;-87
2021/09/04 03:03:40;;;;;;;9.73;3.33;;;14.30;78.60;;;;;;5036609;28;20180;-87
2021/09/04 03:06:06;;;;;;;8.53;3.47;;;14.30;78.70;;;;;;5036625;28;20180;-87
2021/09/04 03:08:33;;;;;;;6.63;3.70;;;14.30;79.10;;;;;;5036631;28;20691;-88
2021/09/04 03:10:59;;;;;;;8.03;4.07;;;14.30;79.30;;;;;;5036555;28;20202;-88
2021/09/04 03:13:25;;;;;;;11.80;4.00;;;14.30;79.50;;;;;;5036520;28;20644;-88
2021/09/04 03:15:50;;;;;;;10.50;4.15;;;14.30;79.60;;;;;;5036198;28;20179;-88
2021/09/04 03:18:16;;;;;;;7.03;3.53;;;14.30;79.70;;;;;;5036685;28;20186;-88
2021/09/04 03:20:42;;;;;;;8.87;3.70;;;14.30;79.60;;;;;;5036399;28;20176;-88
2021/09/04 03:23:07;;;;;;;10.70;3.97;;;14.30;79.60;;;;;;5036384;28;20620;-88
2021/09/04 03:25:33;;;;;;;10.93;4.27;;;14.30;79.50;;;;;;5036229;28;20176;-88
2021/09/04 03:27:59;;;;;;;10.60;3.93;;;14.30;79.50;;;;;;5054031;28;20179;-88
2021/09/04 03:30:25;;;;;;;12.93;4.67;;;14.30;79.60;;;;;;5036173;28;20183;-88
2021/09/04 03:32:51;;;;;;;9.43;4.13;;;14.30;79.20;;;;;;5054156;28;20542;-88
2021/09/04 03:35:16;;;;;;;11.40;4.77;;;14.30;79.20;;;;;;5053964;28;20180;-88
2021/09/04 03:37:42;;;;;;;11.00;4.97;;;14.40;79.10;;;;;;5035964;28;20172;-88
2021/09/04 03:40:08;;;;;;;16.07;5.20;;;14.40;79.30;;;;;;5053884;28;20555;-88
2021/09/04 03:42:34;;;;;;;15.32;5.60;;;14.30;79.30;;;;;;5035820;28;20231;-88
2021/09/04 03:44:59;;;;;;;10.93;4.80;;;14.30;79.40;;;;;;5035925;28;20184;-88
2021/09/04 03:47:26;;;;;;;16.30;6.07;;;14.30;79.50;;;;;;5036781;28;20549;-88
2021/09/04 03:49:51;;;;;;;12.67;6.00;;;14.30;79.50;;;;;;5035732;28;20676;-88
2021/09/04 03:52:17;;;;;;;13.80;5.30;;;14.30;79.60;;;;;;5035734;28;20269;-88
2021/09/04 03:54:43;;;;;;;13.65;5.75;;;14.30;79.80;;;;;;5035638;28;20644;-88
2021/09/04 03:57:08;;;;;;;12.10;5.63;;;14.30;79.50;;;;;;5053892;28;20179;-88
2021/09/04 03:59:34;;;;;;;16.15;6.68;;;14.30;79.50;;;;;;5053517;28;20230;-88
2021/09/04 04:02:00;;;;;;;16.95;6.50;;;14.30;79.90;;;;;;5035641;28;20672;-88
2021/09/04 04:04:25;;;;;;;14.05;5.90;;;14.30;79.90;;;;;;5053803;28;20635;-88
2021/09/04 04:06:51;;;;;;;12.17;5.87;;;14.30;79.80;;;;;;5035686;28;20607;-88
2021/09/04 04:09:17;;;;;;;11.05;5.90;;;14.30;79.90;;;;;;5035588;28;20687;-88
2021/09/04 04:11:42;;;;;;;13.47;5.20;;;14.30;79.90;;;;;;5036174;28;20196;-88
2021/09/04 04:14:08;;;;;;;10.80;5.55;;;14.30;79.90;;;;;;5036464;28;20176;-88
2021/09/04 04:16:34;;;;;;;16.52;6.28;;;14.30;79.90;;;;;;5035487;28;20176;-88
2021/09/04 04:18:59;;;;;;;11.93;5.80;;;14.30;80.00;;;;;;5035451;28;20619;-88
2021/09/04 04:21:25;;;;;;;13.25;6.30;;;14.30;80.40;;;;;;5035440;28;20207;-88
2021/09/04 04:23:50;;;;;;;11.88;5.07;;;14.30;80.50;;;;;;5036342;28;20190;-88
2021/09/04 04:26:16;;;;;;;17.75;6.53;;;14.30;80.40;;;;;;5034759;28;20190;-88
2021/09/04 04:28:42;;;;;;;12.53;6.07;;;14.30;80.30;;;;;;5053473;28;20283;-88
2021/09/04 04:31:08;;;;;;;17.83;6.78;;;14.30;80.80;;;;;;5035650;28;20730;-88
2021/09/04 04:33:33;;;;;;;15.85;6.13;;;14.30;80.80;;;;;;5035304;28;20219;-88
2021/09/04 04:35:59;;;;;;;16.73;6.47;;;14.30;80.60;;;;;;5035271;28;20179;-88
2021/09/04 04:38:25;;;;;;;11.00;6.72;;;14.30;80.50;;;;;;5035294;28;20266;-88
2021/09/04 04:40:50;;;;;;;19.23;7.25;;;14.30;80.40;;;;;;5053296;28;20241;-88
2021/09/04 04:43:16;;;;;;;17.17;7.40;;;14.30;80.50;;;;;;5035237;28;20191;-88
2021/09/04 04:45:42;;;;;;;13.98;6.78;;;14.30;80.60;;;;;;5035142;28;20648;-88
2021/09/04 04:48:08;;;;;;;17.33;7.65;;;14.30;80.60;;;;;;5035100;28;20180;-88
2021/09/04 04:50:33;;;;;;;14.15;6.13;;;14.20;80.80;;;;;;5053043;28;20176;-88
2021/09/04 04:52:59;;;;;;;11.15;6.47;;;14.20;80.80;;;;;;5035184;28;20211;-88
2021/09/04 04:55:25;;;;;;;13.45;6.55;;;14.30;80.50;;;;;;5035179;28;20175;-88
2021/09/04 04:57:50;;;;;;;22.35;7.20;;;14.30;80.50;;;;;;5052978;28;20164;-88
2021/09/04 05:00:17;;;;;;;14.90;7.47;;;14.30;80.60;;;;;;5053225;28;20180;-88
2021/09/04 05:02:42;;;;;;;12.02;7.10;;;14.30;80.80;;;;;;5035310;28;20196;-88
2021/09/04 05:05:09;;;;;;;20.40;6.93;;;14.30;80.40;;;;;;5035021;28;20186;-88
2021/09/04 05:07:34;;;;;;;10.55;6.57;;;14.30;80.60;;;;;;5034907;28;20698;-88
2021/09/04 05:10:01;;;;;;;20.83;8.98;;;14.30;80.40;;;;;;5034919;28;20200;-88
2021/09/04 05:12:26;;;;;;;16.80;8.55;;;14.30;80.30;;;;;;5035334;28;20203;-88
2021/09/04 05:14:52;;;;;;;16.40;7.93;;;14.30;80.10;;;;;;5035043;28;20549;-88
2021/09/04 05:17:18;;;;;;;13.98;7.72;;;14.40;79.90;;;;;;5034866;28;20176;-88
2021/09/04 05:19:43;;;;;;;12.13;7.82;;;14.40;79.90;;;;;;5034960;28;20187;-88
2021/09/04 05:22:09;;;;;;;17.75;8.02;;;14.50;80.10;;;;;;5052670;28;20200;-88
2021/09/04 05:24:35;;;;;;;18.95;8.95;;;14.40;80.00;;;;;;5052706;28;20684;-88
2021/09/04 05:27:00;;;;;;;22.42;8.55;;;14.50;80.00;;;;;;5034900;28;20176;-88
2021/09/04 05:29:27;;;;;;;16.10;8.43;;;14.40;79.90;;;;;;5052844;28;20207;-88
2021/09/04 05:31:52;;;;;;;20.73;8.43;;;14.40;79.70;;;;;;5034684;28;20582;-88
2021/09/04 05:34:18;;;;;;;16.63;8.93;;;14.40;79.80;;;;;;5034827;28;20271;-88
2021/09/04 05:36:44;;;;;;;20.77;9.40;;;14.40;79.60;;;;;;5035083;28;20176;-88
2021/09/04 05:39:10;;;;;;;17.75;8.82;;;14.40;79.70;;;;;;5037421;28;20229;-88
2021/09/04 05:41:35;;;;;;;19.38;9.85;;;14.50;79.70;;;;;;5038211;28;20199;-88
2021/09/04 05:44:01;;;;;;;17.60;9.52;;;14.50;79.70;;;;;;5038274;28;20234;-88
2021/09/04 05:46:27;;;;;;;19.15;9.57;;;14.50;79.40;;;;;;5055955;28;20171;-88
2021/09/04 05:48:52;;;;;;;21.17;9.90;;;14.50;79.50;;;;;;5037982;28;20299;-88
2021/09/04 05:51:18;;;;;;;22.98;10.35;;;14.60;79.20;;;;;;5037932;28;20214;-88
2021/09/04 05:53:44;;;;;;;19.55;10.65;;;14.60;79.20;;;;;;5038105;28;20206;-88
2021/09/04 05:56:09;;;;;;;19.63;10.87;;;14.50;78.40;;;;;;5038107;28;20176;-88
2021/09/04 05:58:35;;;;;;;18.77;10.82;;;14.60;78.60;;;;;;5055730;28;20259;-88
2021/09/04 06:01:01;;;;;;;19.67;10.88;;;14.70;78.50;;;;;;5037871;28;20294;-87
2021/09/04 06:03:26;;;;;;;23.38;11.88;;;14.70;77.90;;;;;;5037781;28;20191;-88
2021/09/04 06:05:56;;;;;;;17.77;10.88;;;14.70;76.50;;;;;;5037807;28;20187;-88
2021/09/04 06:08:23;;;;;;;20.60;11.70;;;14.80;75.90;;;;;;5055732;28;20563;-88
2021/09/04 06:10:48;;;;;;;20.42;11.77;;;14.80;75.90;;;;;;5037592;28;20172;-88
2021/09/04 06:13:14;;;;;;;28.15;11.50;;;14.80;75.80;;;;;;5037598;28;20183;-88
2021/09/04 06:15:39;;;;;;;26.88;11.80;;;14.80;75.90;;;;;;5037754;28;20176;-88
2021/09/04 06:18:05;;;;;;;16.52;10.20;;;14.90;75.90;;;;;;5037592;28;20712;-88
2021/09/04 06:20:31;;;;;;;19.77;10.93;;;14.90;75.80;;;;;;5037535;28;20175;-88
2021/09/04 06:22:56;;;;;;;22.08;11.55;;;14.90;75.20;;;;;;5037450;28;20195;-88
2021/09/04 06:25:22;;;;;;;21.80;11.98;;;15.00;75.70;;;;;;5037768;28;20258;-88
2021/09/04 06:27:49;;;;;;;28.05;12.10;;;15.00;74.90;;;;;;5037331;28;20176;-88
2021/09/04 06:30:15;;;;;;;26.25;12.27;;;15.10;74.90;;;;;;5037905;28;20571;-88
2021/09/04 06:32:41;;;;;;;23.13;12.43;;;15.10;75.10;;;;;;5037228;28;20291;-88
2021/09/04 06:35:07;;;;;;;18.52;10.63;;;15.10;75.40;;;;;;5037309;28;20258;-88
2021/09/04 06:37:33;;;;;;;22.50;11.70;;;15.20;75.50;;;;;;5037132;28;20175;-88
2021/09/04 06:39:58;;;;;;;23.25;11.48;;;15.20;74.50;;;;;;5038023;28;20176;-88
2021/09/04 06:42:24;;;;;;;21.88;11.82;;;15.30;74.40;;;;;;5037069;28;20199;-88
2021/09/04 06:44:49;;;;;;;26.02;11.55;;;15.30;74.80;;;;;;5036964;28;20172;-88
2021/09/04 06:47:15;;;;;;;15.35;10.45;;;15.30;75.00;;;;;;5036995;28;20329;-88
2021/09/04 06:49:41;;;;;;;21.00;11.85;;;15.40;73.60;;;;;;5036606;28;20720;-88
2021/09/04 06:52:06;;;;;;;22.80;11.63;;;15.40;73.50;;;;;;5036790;28;20310;-88
2021/09/04 06:54:32;;;;;;;22.67;11.68;;;15.40;73.60;;;;;;5036802;28;20221;-88
2021/09/04 06:57:00;;;;;;;23.45;12.40;;;15.50;73.60;;;;;;5036782;28;20168;-88
2021/09/04 06:59:26;;;;;;;20.15;11.48;;;15.60;74.00;;;;;;5036807;28;20183;-88
2021/09/04 07:01:52;;;;;;;20.92;10.90;;;15.60;73.50;;;;;;5036743;28;20571;-88
2021/09/04 07:04:17;;;;;;;31.33;13.40;;;15.70;73.60;;;;;;5037037;28;20188;-88
2021/09/04 07:06:43;;;;;;;22.02;11.40;;;15.70;73.70;;;;;;5036779;28;20707;-88
2021/09/04 07:09:09;;;;;;;19.30;10.10;;;15.70;73.80;;;;;;5036876;28;20655;-88
2021/09/04 07:11:34;;;;;;;22.33;10.13;;;15.70;73.30;;;;;;5054345;28;20183;-88
2021/09/04 07:14:00;;;;;;;22.65;9.93;;;15.80;73.30;;;;;;5036575;28;20176;-88
2021/09/04 07:16:26;;;;;;;16.70;8.65;;;15.80;73.50;;;;;;5054874;28;20608;-88
2021/09/04 07:18:52;;;;;;;14.95;8.52;;;15.90;73.20;;;;;;5036472;28;20176;-88
2021/09/04 07:21:17;;;;;;;13.80;8.30;;;16.00;72.10;;;;;;5054500;28;20192;-88
2021/09/04 07:23:43;;;;;;;19.73;8.65;;;16.00;72.20;;;;;;5037137;28;20210;-88
2021/09/04 07:26:09;;;;;;;16.13;8.57;;;16.10;72.20;;;;;;5036221;28;20636;-88
2021/09/04 07:28:35;;;;;;;24.42;8.63;;;16.20;72.50;;;;;;5054355;28;20238;-88
2021/09/04 07:31:00;;;;;;;14.25;8.05;;;16.20;71.70;;;;;;5036143;28;20172;-88
2021/09/04 07:33:27;;;;;;;18.70;8.93;;;16.30;71.90;;;;;;5036186;28;20233;-89
2021/09/04 07:35:53;;;;;;;21.05;9.30;;;16.30;72.80;;;;;;5053964;28;20168;-89
2021/09/04 07:38:19;;;;;;;20.52;8.32;;;16.40;72.30;;;;;;5054129;28;20175;-89
2021/09/04 07:40:45;;;;;;;16.75;8.88;;;16.40;72.80;;;;;;5053988;28;20172;-87
2021/09/04 07:43:11;;;;;;;20.50;8.55;;;16.60;72.70;;;;;;5035941;28;20226;-87
2021/09/04 07:45:37;;;;;;;14.05;7.75;;;16.50;71.80;;;;;;5035829;28;20180;-88
2021/09/04 07:48:04;;;;;;;13.65;7.65;;;16.60;71.70;;;;;;5035866;28;20256;-87
2021/09/04 07:50:30;;;;;;;11.95;6.63;;;16.80;71.20;;;;;;5035754;28;20203;-88
2021/09/04 07:52:55;;;;;;;16.58;7.15;;;16.80;68.50;;;;;;5035613;28;20257;-87
2021/09/04 07:55:21;;;;;;;13.85;6.68;;;16.80;69.50;;;;;;5035723;28;20226;-87
2021/09/04 07:57:47;;;;;;;12.13;7.22;;;16.80;70.40;;;;;;5053503;28;20258;-87
2021/09/04 08:00:13;;;;;;;17.05;8.30;;;16.90;70.40;;;;;;5035636;28;20206;-88
2021/09/04 08:02:39;;;;;;;23.52;7.57;;;16.90;71.00;;;;;;5034597;28;20196;-87
2021/09/04 08:05:05;;;;;;;13.68;6.70;;;17.00;70.40;;;;;;5035646;28;20180;-88
2021/09/04 08:07:31;;;;;;;13.73;6.75;;;16.90;70.40;;;;;;5035580;28;20176;-88
2021/09/04 08:09:56;;;;;;;15.55;6.72;;;16.90;69.30;;;;;;5053283;28;20207;-87
2021/09/04 08:12:22;;;;;;;15.20;7.15;;;16.90;69.70;;;;;;5053472;28;20191;-87
2021/09/04 08:14:48;;;;;;;12.65;6.93;;;16.90;69.20;;;;;;5035597;28;20172;-87
2021/09/04 08:17:14;;;;;;;14.27;7.45;;;17.00;69.60;;;;;;5053511;28;20168;-87
2021/09/04 08:19:39;;;;;;;17.55;7.40;;;17.00;71.20;;;;;;5053347;28;20176;-87
2021/09/04 08:22:05;;;;;;;13.32;6.93;;;17.20;70.10;;;;;;5053471;28;20196;-88
2021/09/04 08:24:31;;;;;;;17.08;7.28;;;17.10;69.20;;;;;;5053167;28;20189;-87
2021/09/04 08:26:58;;;;;;;13.25;7.00;;;17.10;69.30;;;;;;5035415;28;20188;-88
2021/09/04 08:29:23;;;;;;;14.10;6.68;;;17.20;70.60;;;;;;5053142;28;20245;-88
2021/09/04 08:31:49;;;;;;;11.93;6.55;;;17.30;69.60;;;;;;5035189;28;20195;-88
2021/09/04 08:34:15;;;;;;;15.07;6.68;;;17.30;70.30;;;;;;5035633;28;20267;-88
2021/09/04 08:36:41;;;;;;;11.00;6.68;;;17.40;69.60;;;;;;5035345;28;20199;-88
2021/09/04 08:39:06;;;;;;;13.13;6.45;;;17.40;69.00;;;;;;5035481;28;20190;-88
2021/09/04 08:41:36;;;;;;;11.30;6.50;;;17.40;69.60;;;;;;5035323;28;20231;-88
2021/09/04 08:44:02;;;;;;;16.70;7.05;;;17.50;69.60;;;;;;5053265;28;20199;-88
2021/09/04 08:46:32;;;;;;;13.88;6.82;;;17.60;69.50;;;;;;5035216;28;20183;-88
2021/09/04 08:48:59;;;;;;;12.90;6.30;;;17.80;68.90;;;;;;5035156;28;20222;-88
2021/09/04 08:51:25;;;;;;;13.05;6.85;;;17.80;69.30;;;;;;5034996;28;20231;-88
2021/09/04 08:53:51;;;;;;;11.23;5.70;;;18.00;68.80;;;;;;5052947;28;20204;-88
2021/09/04 08:56:16;;;;;;;11.60;5.60;;;18.10;67.60;;;;;;5052931;28;20172;-88
2021/09/04 08:58:42;;;;;;;16.67;5.85;;;18.00;67.60;;;;;;5053038;28;20221;-88
2021/09/04 09:01:16;;;;;;;13.95;6.03;;;18.00;68.20;;;;;;5035041;28;20203;-87
2021/09/04 09:03:42;;;;;;;11.23;6.03;;;17.90;67.80;;;;;;5035095;28;20183;-88
2021/09/04 09:06:08;;;;;;;12.60;6.88;;;18.00;67.50;;;;;;5052783;28;20763;-88
2021/09/04 09:08:40;;;;;;;14.60;6.88;;;17.90;68.10;;;;;;5035044;28;20209;-88
2021/09/04 09:11:07;;;;;;;11.00;7.20;;;17.80;69.20;;;;;;5035258;28;20259;-88
2021/09/04 09:13:44;;;;;;;14.77;6.68;;;17.80;69.30;;;;;;5055065;28;20164;-88
2021/09/04 09:16:16;;;;;;;16.08;7.07;;;18.00;69.10;;;;;;5056844;28;20496;-88
2021/09/04 09:18:54;;;;;;;14.13;6.55;;;18.20;69.90;;;;;;5039356;28;20291;-89
2021/09/04 09:21:20;;;;;;;11.55;6.55;;;18.00;69.20;;;;;;5038564;28;20206;-88
2021/09/04 09:24:04;;;;;;;13.52;6.85;;;17.80;69.70;;;;;;5056476;28;20247;-89
2021/09/04 09:26:30;;;;;;;13.77;7.15;;;17.80;70.30;;;;;;5038513;28;20175;-88
2021/09/04 09:29:23;;;;;;;14.48;6.93;;;17.80;70.70;;;;;;5056638;28;20196;-88
2021/09/04 09:31:58;;;;;;;17.55;6.68;;;17.80;71.80;;;;;;5038408;28;20569;-88
2021/09/04 09:34:23;;;;;;;16.42;6.82;;;17.90;71.60;;;;;;5056317;28;20210;-88
2021/09/04 09:36:52;;;;;;;14.82;7.40;;;18.00;70.10;;;;;;5038840;28;20180;-88
2021/09/04 09:39:19;;;;;;;14.80;8.30;;;18.10;69.90;;;;;;5038336;28;20237;-88
2021/09/04 09:41:49;;;;;;;15.95;6.95;;;18.10;69.10;;;;;;5056549;28;20184;-88
2021/09/04 09:44:23;;;;;;;17.55;7.05;;;18.10;69.70;;;;;;5038526;28;20195;-88
2021/09/04 09:46:50;;;;;;;12.98;7.32;;;18.30;69.60;;;;;;5056380;28;20688;-88
2021/09/04 09:49:16;;;;;;;13.10;7.25;;;18.50;70.00;;;;;;5038331;28;20204;-88
2021/09/04 09:51:43;;;;;;;18.77;7.80;;;18.50;69.80;;;;;;5055943;28;20287;-88
2021/09/04 09:54:11;;;;;;;12.02;6.40;;;18.50;70.10;;;;;;5038303;28;20259;-88
2021/09/04 09:56:39;;;;;;;14.43;7.00;;;18.60;70.30;;;;;;5038337;28;20179;-88
2021/09/04 09:59:09;;;;;;;14.30;6.88;;;18.50;69.80;;;;;;5056110;28;20168;-88
2021/09/04 10:01:35;;;;;;;9.88;6.30;;;18.20;69.90;;;;;;5056066;28;20196;-89
2021/09/04 10:04:01;;;;;;;13.73;5.78;;;18.20;70.90;;;;;;5037807;28;20184;-88
2021/09/04 10:06:27;;;;;;;16.70;5.95;;;18.20;70.90;;;;;;5038143;28;20558;-88
2021/09/04 10:08:53;;;;;;;14.02;5.93;;;18.50;70.70;;;;;;5055549;28;20207;-88
2021/09/04 10:11:19;;;;;;;10.75;5.55;;;18.30;69.10;;;;;;5038041;28;20192;-88
2021/09/04 10:13:45;;;;;;;18.17;6.63;;;18.10;69.10;;;;;;5055768;28;20175;-88
2021/09/04 10:16:11;;;;;;;9.98;5.38;;;18.00;70.50;;;;;;5055443;28;20578;-86
2021/09/04 10:18:38;;;;;;;16.15;5.55;;;17.80;70.20;;;;;;5037465;28;20179;-86
2021/09/04 10:21:10;;;;;;;11.70;5.47;;;17.70;70.30;;;;;;5055706;28;20196;-86
2021/09/04 10:23:41;;;;;;;11.38;5.20;;;17.50;71.10;;;;;;5037251;28;20188;-86
2021/09/04 10:26:38;;;;;;;13.05;6.10;;;17.40;70.70;;;;;;5036635;28;20192;-86
2021/09/04 10:29:08;;;;;;;10.75;5.85;;;17.40;70.70;;;;;;5055157;28;20212;-86
2021/09/04 10:31:42;;;;;;;13.45;5.80;;;17.30;71.30;;;;;;5055204;28;20267;-86
2021/09/04 10:34:24;;;;;;;14.10;5.65;;;17.30;71.00;;;;;;5054980;28;20626;-86
2021/09/04 10:36:56;;;;;;;12.80;5.18;;;17.40;71.90;;;;;;5055167;28;20612;-87
2021/09/04 10:39:22;;;;;;;13.98;5.80;;;17.50;71.50;;;;;;5054919;28;20226;-86
2021/09/04 10:41:49;;;;;;;10.05;4.88;;;17.60;71.00;;;;;;5037008;28;20204;-86
2021/09/04 10:44:15;;;;;;;16.80;5.72;;;17.70;71.20;;;;;;5054879;28;20500;-86
2021/09/04 10:46:43;;;;;;;11.02;5.18;;;17.70;69.70;;;;;;5036902;28;20230;-86
2021/09/04 10:49:08;;;;;;;11.10;5.28;;;17.60;69.50;;;;;;5036880;28;20290;-86
2021/09/04 10:51:51;;;;;;;13.55;5.30;;;17.60;69.10;;;;;;5036685;28;20303;-86
2021/09/04 10:54:37;;;;;;;13.02;5.15;;;17.50;69.40;;;;;;5037688;28;20191;-86
2021/09/04 10:57:16;;;;;;;9.65;5.28;;;17.50;70.00;;;;;;5054612;28;20164;-87
2021/09/04 10:59:59;;;;;;;13.27;5.05;;;17.70;70.20;;;;;;5037661;28;20516;-86
2021/09/04 11:02:41;;;;;;;10.98;5.45;;;17.70;69.40;;;;;;5054507;28;20191;-86
2021/09/04 11:05:25;;;;;;;14.60;5.63;;;17.60;68.70;;;;;;5036516;28;20559;-86
2021/09/04 11:08:01;;;;;;;15.98;5.53;;;17.70;71.10;;;;;;5036599;28;20171;-86
2021/09/04 11:10:27;;;;;;;12.07;5.55;;;17.80;68.20;;;;;;5054524;28;20200;-86
2021/09/04 11:13:13;;;;;;;9.05;4.65;;;17.90;68.40;;;;;;5036574;28;20584;-86
2021/09/04 11:15:40;;;;;;;10.52;4.97;;;17.80;68.70;;;;;;5040164;28;20215;-86
2021/09/04 11:18:06;;;;;;;9.95;5.18;;;17.90;67.70;;;;;;5036612;28;20665;-86
2021/09/04 11:20:32;;;;;;;14.48;5.72;;;18.10;69.30;;;;;;5054031;28;20702;-86
2021/09/04 11:22:58;;;;;;;7.72;4.25;;;18.10;67.70;;;;;;5054004;28;20196;-86
2021/09/04 11:25:24;;;;;;;10.05;4.28;;;18.20;67.40;;;;;;5036207;28;20615;-86
2021/09/04 11:27:50;;;;;;;6.80;3.50;;;18.20;66.50;;;;;;5036129;28;20275;-86
2021/09/04 11:30:22;;;;;;;7.65;3.78;;;18.30;65.30;;;;;;5053928;28;20196;-86
2021/09/04 11:32:48;;;;;;;7.07;3.75;;;18.40;64.40;;;;;;5035789;28;20194;-86
2021/09/04 11:35:15;;;;;;;8.60;3.78;;;18.60;66.90;;;;;;5035857;28;20262;-86
2021/09/04 11:37:44;;;;;;;11.07;3.55;;;18.70;63.90;;;;;;5053752;28;20192;-86
2021/09/04 11:40:13;;;;;;;8.10;4.00;;;18.70;63.70;;;;;;5053958;28;20601;-86
2021/09/04 11:42:47;;;;;;;7.90;4.00;;;18.80;64.60;;;;;;5053633;28;20188;-86
2021/09/04 11:45:23;;;;;;;9.73;3.90;;;19.10;64.40;;;;;;5053692;28;20188;-86
2021/09/04 11:47:52;;;;;;;12.68;4.60;;;19.20;63.70;;;;;;5053637;28;20171;-86
2021/09/04 11:50:32;;;;;;;8.63;3.65;;;19.60;64.60;;;;;;5053646;28;20573;-86
2021/09/04 11:52:59;;;;;;;12.43;4.03;;;19.90;63.20;;;;;;5053509;28;20534;-86
2021/09/04 11:55:28;;;;;;;8.75;4.38;;;19.80;60.80;;;;;;5053523;28;20667;-86
2021/09/04 11:57:56;;;;;;;8.13;3.97;;;19.70;60.60;;;;;;5053433;28;20175;-86
2021/09/04 12:00:25;;;;;;;8.68;4.72;;;19.30;60.70;;;;;;5053729;28;20644;-86
2021/09/04 12:02:54;;;;;;;10.20;4.13;;;19.10;64.80;;;;;;5035385;28;20291;-86
2021/09/04 12:05:31;;;;;;;9.70;4.25;;;18.90;62.90;;;;;;5035358;28;20666;-86
2021/09/04 12:08:03;;;;;;;9.95;4.22;;;18.70;64.50;;;;;;5035466;28;20183;-85
2021/09/04 12:10:32;;;;;;;10.15;4.57;;;18.70;64.60;;;;;;5053251;28;20200;-86
2021/09/04 12:13:01;;;;;;;10.50;4.55;;;18.60;65.50;;;;;;5035456;28;20198;-86
2021/09/04 12:15:28;;;;;;;10.75;4.80;;;18.70;64.90;;;;;;5053188;28;20214;-86
2021/09/04 12:18:01;;;;;;;10.30;4.47;;;18.70;65.30;;;;;;5035341;28;20187;-86
2021/09/04 12:20:32;;;;;;;6.45;3.97;;;18.80;66.30;;;;;;5053115;28;20176;-86
2021/09/04 12:23:10;;;;;;;11.18;4.38;;;19.00;65.30;;;;;;5035149;28;20195;-86
2021/09/04 12:25:35;;;;;;;8.45;4.40;;;19.30;64.50;;;;;;5053194;28;20164;-86
2021/09/04 12:28:12;;;;;;;15.75;4.75;;;19.50;62.40;;;;;;5053580;28;20271;-86
2021/09/04 12:31:15;;;;;;;10.00;4.53;;;19.60;64.20;;;;;;5035131;28;20207;-86
2021/09/04 12:33:50;;;;;;;10.32;4.28;;;19.40;63.00;;;;;;5053308;28;20163;-86
2021/09/04 12:36:17;;;;;;;9.75;4.60;;;19.60;62.00;;;;;;5035332;28;20179;-87
2021/09/04 12:38:45;;;;;;;8.88;4.30;;;19.90;61.40;;;;;;5035125;28;20179;-86